Time;durP1;ratioP1;P1;durP2;ratioP2;P2;SDS_P1;SDS_P2;PMS_P1;PMS_P2;Temp;Humidity;BMP_temperature;BMP_pressure;BME280_temperature;BME280_humidity;BME280_pressure;Samples;Min_cycle;Max_cycle;Signal;HPM_P1;HPM_P2
2022/07/24 00:01:12;;;;;;;14.40;8.68;;;;;;;27.25;49.17;99887.66;4433880;32;32785;-87
2022/07/24 00:03:41;;;;;;;12.20;8.70;;;;;;;27.49;48.75;99884.09;4457940;32;33474;-87
2022/07/24 00:06:10;;;;;;;8.65;7.65;;;;;;;27.18;49.00;99887.53;4445277;32;33827;-87
2022/07/24 00:08:40;;;;;;;9.88;8.00;;;;;;;27.20;48.93;99885.47;4458118;32;33946;-86
2022/07/24 00:11:09;;;;;;;11.00;8.65;;;;;;;27.36;48.54;99883.78;4462027;32;34088;-87
2022/07/24 00:13:37;;;;;;;9.32;8.32;;;;;;;27.29;48.85;99883.59;4446239;32;34061;-87
2022/07/24 00:16:07;;;;;;;13.25;9.63;;;;;;;27.29;49.05;99889.03;4458278;32;33897;-86
2022/07/24 00:18:36;;;;;;;10.15;9.15;;;;;;;27.30;49.19;99894.28;4476362;32;33227;-87
2022/07/24 00:21:04;;;;;;;15.70;9.13;;;;;;;27.40;49.31;99901.41;4454024;32;33671;-86
2022/07/24 00:23:34;;;;;;;11.30;8.70;;;;;;;27.06;50.48;99911.41;4471560;32;33026;-87
2022/07/24 00:26:02;;;;;;;10.57;8.18;;;;;;;26.71;51.63;99918.00;4443559;32;33218;-86
2022/07/24 00:28:30;;;;;;;10.25;8.85;;;;;;;27.03;50.91;99908.19;4445910;32;34267;-86
2022/07/24 00:30:58;;;;;;;11.98;9.32;;;;;;;27.07;50.68;99917.66;4473524;32;33845;-86
2022/07/24 00:33:26;;;;;;;10.20;8.38;;;;;;;26.62;52.10;99920.88;4461166;32;31911;-87
2022/07/24 00:35:53;;;;;;;9.27;8.32;;;;;;;26.67;51.71;99922.03;4456193;32;32583;-87
2022/07/24 00:38:21;;;;;;;9.48;8.45;;;;;;;26.63;51.72;99922.56;4459451;32;33216;-86
2022/07/24 00:40:50;;;;;;;12.30;8.77;;;;;;;26.80;51.37;99919.69;4445927;32;33229;-86
2022/07/24 00:43:18;;;;;;;14.38;7.90;;;;;;;26.85;50.93;99921.06;4458147;32;33430;-86
2022/07/24 00:45:46;;;;;;;8.70;7.90;;;;;;;26.51;51.70;99922.03;4456862;32;33565;-87
2022/07/24 00:48:16;;;;;;;12.25;8.95;;;;;;;26.41;52.04;99924.03;4457027;32;34741;-87
2022/07/24 00:50:46;;;;;;;9.88;8.32;;;;;;;26.54;51.81;99919.00;4443885;32;33795;-86
2022/07/24 00:53:15;;;;;;;9.80;8.80;;;;;;;26.70;51.23;99916.31;4458389;32;34248;-85
2022/07/24 00:55:43;;;;;;;10.40;8.90;;;;;;;26.65;51.33;99913.25;4460244;32;34576;-85
2022/07/24 00:58:12;;;;;;;9.23;7.50;;;;;;;26.63;51.40;99915.28;4458677;32;33740;-85
2022/07/24 01:00:40;;;;;;;10.90;8.43;;;;;;;26.62;51.41;99913.56;4472694;32;33250;-87
2022/07/24 01:03:07;;;;;;;9.30;8.32;;;;;;;26.64;51.57;99910.72;4455994;32;32357;-86
2022/07/24 01:05:35;;;;;;;8.63;7.78;;;;;;;26.64;51.76;99906.16;4446078;32;33424;-86
2022/07/24 01:08:03;;;;;;;8.73;7.75;;;;;;;26.66;51.62;99898.69;4444635;32;32099;-86
2022/07/24 01:10:31;;;;;;;10.02;8.82;;;;;;;27.01;50.47;99896.66;4446298;32;34324;-86
2022/07/24 01:13:00;;;;;;;13.20;8.50;;;;;;;26.89;51.01;99898.88;4472165;32;32957;-86
2022/07/24 01:15:28;;;;;;;9.77;8.13;;;;;;;26.86;50.79;99888.38;4461440;32;33881;-86
2022/07/24 01:17:56;;;;;;;8.98;7.57;;;;;;;27.00;50.33;99901.22;4462404;32;32794;-85
2022/07/24 01:20:24;;;;;;;9.45;7.32;;;;;;;27.03;49.78;99906.31;4445639;32;32555;-86
2022/07/24 01:22:52;;;;;;;11.18;7.80;;;;;;;27.12;49.55;99903.63;4447484;32;32638;-86
2022/07/24 01:25:20;;;;;;;9.95;7.30;;;;;;;27.02;49.35;99903.78;4444104;32;34519;-85
2022/07/24 01:27:50;;;;;;;8.15;6.78;;;;;;;27.18;48.51;99897.53;4457736;32;32832;-86
2022/07/24 01:30:18;;;;;;;7.40;6.75;;;;;;;26.93;48.93;99893.97;4457665;32;34488;-86
2022/07/24 01:32:46;;;;;;;10.73;6.20;;;;;;;27.12;48.09;99904.47;4471018;32;32957;-86
2022/07/24 01:35:15;;;;;;;7.12;6.43;;;;;;;27.16;47.94;99895.00;4470594;32;33568;-85
2022/07/24 01:37:52;;;;;;;6.82;5.97;;;;;;;27.23;47.58;99890.56;4452221;32;34034;-85
2022/07/24 01:40:21;;;;;;;7.12;5.97;;;;;;;27.26;47.21;99887.53;4470313;32;33552;-86
2022/07/24 01:42:48;;;;;;;7.43;5.70;;;;;;;27.21;47.48;99886.34;4455930;32;35837;-84
2022/07/24 01:45:18;;;;;;;11.63;6.18;;;;;;;27.19;47.49;99878.37;4447468;32;32666;-86
2022/07/24 01:47:46;;;;;;;10.75;7.15;;;;;;;27.17;47.63;99875.00;4458142;32;33734;-85
2022/07/24 01:50:14;;;;;;;7.78;6.22;;;;;;;26.99;48.44;99877.03;4458906;32;33901;-85
2022/07/24 01:52:42;;;;;;;6.80;6.20;;;;;;;27.11;47.82;99886.53;4458972;32;32903;-84
2022/07/24 01:55:10;;;;;;;6.53;5.68;;;;;;;26.89;48.78;99895.31;4439575;32;33411;-84
2022/07/24 01:57:39;;;;;;;6.78;6.07;;;;;;;26.89;48.80;99898.03;4456102;32;34708;-84
2022/07/24 02:00:12;;;;;;;10.63;6.57;;;;;;;26.96;48.70;99897.16;4435347;32;34330;-84
2022/07/24 02:02:43;;;;;;;8.23;6.20;;;;;;;27.07;48.40;99901.41;4446084;32;33115;-84
2022/07/24 02:05:12;;;;;;;8.15;5.90;;;;;;;27.03;49.32;99897.34;4442104;32;33300;-84
2022/07/24 02:07:42;;;;;;;8.10;6.47;;;;;;;27.07;50.16;99893.28;4456736;32;34670;-84
2022/07/24 02:10:14;;;;;;;11.48;7.25;;;;;;;27.12;51.31;99893.66;4446400;32;34020;-84
2022/07/24 02:12:42;;;;;;;7.00;6.25;;;;;;;26.89;53.92;99889.91;4442668;32;32626;-84
2022/07/24 02:15:10;;;;;;;11.45;8.10;;;;;;;26.84;53.86;99876.03;4443154;32;33612;-84
2022/07/24 02:17:38;;;;;;;9.43;7.30;;;;;;;26.84;54.37;99867.91;4472890;32;33770;-85
2022/07/24 02:20:06;;;;;;;10.85;7.12;;;;;;;26.58;54.70;99879.72;4459464;32;33947;-85
2022/07/24 02:22:34;;;;;;;9.85;8.50;;;;;;;26.55;54.44;99877.38;4461539;32;34091;-85
2022/07/24 02:25:02;;;;;;;10.05;7.75;;;;;;;26.38;54.73;99878.31;4459275;32;33783;-85
2022/07/24 02:27:30;;;;;;;7.68;6.90;;;;;;;26.32;55.57;99874.44;4460478;32;33539;-84
2022/07/24 02:29:58;;;;;;;8.27;7.05;;;;;;;26.35;54.68;99875.94;4462633;32;33102;-85
2022/07/24 02:32:26;;;;;;;9.00;7.00;;;;;;;26.41;54.77;99878.00;4473924;32;33050;-84
2022/07/24 02:34:54;;;;;;;14.25;6.70;;;;;;;26.34;54.95;99876.97;4449564;32;34331;-85
2022/07/24 02:37:22;;;;;;;8.50;6.85;;;;;;;26.37;54.17;99872.06;4460093;32;33278;-84
2022/07/24 02:39:50;;;;;;;7.80;6.12;;;;;;;26.07;55.71;99886.22;4458381;32;33667;-85
2022/07/24 02:42:18;;;;;;;6.85;6.07;;;;;;;26.29;53.40;99863.91;4471773;32;33140;-85
2022/07/24 02:44:48;;;;;;;6.65;6.05;;;;;;;26.24;52.28;99850.88;4442369;32;33424;-85
2022/07/24 02:47:16;;;;;;;7.15;6.37;;;;;;;26.43;52.09;99835.38;4458425;32;33284;-85
2022/07/24 02:49:43;;;;;;;6.28;5.50;;;;;;;26.39;52.57;99831.28;4457937;32;34444;-85
2022/07/24 02:52:11;;;;;;;8.25;6.10;;;;;;;26.42;51.38;99830.94;4457261;32;34373;-85
2022/07/24 02:54:39;;;;;;;6.78;5.35;;;;;;;26.47;51.09;99823.19;4460083;32;33462;-84
2022/07/24 02:57:07;;;;;;;6.37;5.78;;;;;;;26.45;50.90;99825.25;4472367;32;34711;-84
2022/07/24 02:59:35;;;;;;;8.32;6.12;;;;;;;26.53;50.58;99827.94;4432562;32;33184;-84
2022/07/24 03:02:04;;;;;;;7.70;6.47;;;;;;;26.39;50.97;99831.28;4455719;32;31910;-85
2022/07/24 03:04:31;;;;;;;7.05;5.97;;;;;;;26.78;49.42;99836.91;4457899;32;34325;-85
2022/07/24 03:07:00;;;;;;;7.72;5.93;;;;;;;26.71;49.70;99842.16;4448285;32;34340;-85
2022/07/24 03:09:28;;;;;;;7.70;6.68;;;;;;;26.46;50.86;99838.59;4427063;32;33452;-86
2022/07/24 03:11:56;;;;;;;12.73;6.80;;;;;;;26.27;51.41;99847.84;4429680;32;32191;-86
2022/07/24 03:14:25;;;;;;;7.37;6.65;;;;;;;26.32;51.27;99849.22;4432081;32;32513;-84
2022/07/24 03:16:53;;;;;;;8.48;6.82;;;;;;;26.20;51.14;99848.69;4431667;32;34356;-84
2022/07/24 03:19:20;;;;;;;8.25;6.43;;;;;;;26.14;50.91;99849.34;4419889;32;33672;-84
2022/07/24 03:21:48;;;;;;;8.63;6.12;;;;;;;25.91;51.81;99849.13;4417840;32;32445;-84
2022/07/24 03:24:17;;;;;;;6.07;5.28;;;;;;;26.14;50.94;99850.19;4433673;32;33817;-85
2022/07/24 03:26:45;;;;;;;11.45;6.40;;;;;;;26.32;50.57;99846.50;4432564;32;34756;-85
2022/07/24 03:29:13;;;;;;;6.87;6.28;;;;;;;26.20;51.69;99837.84;4443667;32;33375;-85
2022/07/24 03:31:41;;;;;;;9.95;6.22;;;;;;;26.13;51.71;99834.97;4445770;32;33399;-85
2022/07/24 03:34:09;;;;;;;6.65;5.68;;;;;;;26.15;50.31;99834.78;4431115;32;34339;-86
2022/07/24 03:36:38;;;;;;;7.00;6.30;;;;;;;26.47;49.56;99817.78;4421265;32;33691;-85
2022/07/24 03:39:06;;;;;;;6.57;5.82;;;;;;;26.31;50.13;99834.84;4432369;32;34249;-85
2022/07/24 03:41:35;;;;;;;8.18;5.85;;;;;;;25.98;51.21;99837.47;4443288;32;33877;-85
2022/07/24 03:44:03;;;;;;;7.65;6.85;;;;;;;26.00;50.94;99840.00;4431463;32;33612;-84
2022/07/24 03:46:33;;;;;;;7.20;6.35;;;;;;;26.07;50.92;99854.59;4432322;32;33701;-84
2022/07/24 03:49:02;;;;;;;7.40;6.03;;;;;;;26.19;50.54;99855.09;4432863;32;34081;-84
2022/07/24 03:51:31;;;;;;;8.20;6.68;;;;;;;26.00;51.34;99854.38;4433647;32;33390;-84
2022/07/24 03:54:03;;;;;;;7.05;5.57;;;;;;;26.23;50.11;99846.50;4430430;32;33545;-85
2022/07/24 03:56:31;;;;;;;7.97;5.93;;;;;;;26.46;49.04;99844.03;4418012;32;35256;-84
2022/07/24 03:59:01;;;;;;;6.90;6.30;;;;;;;26.41;49.48;99845.50;4431555;32;33249;-84
2022/07/24 04:01:29;;;;;;;12.95;5.93;;;;;;;26.11;50.30;99850.53;4444354;32;32752;-84
2022/07/24 04:04:04;;;;;;;15.73;5.80;;;;;;;26.36;49.27;99854.13;4418634;32;33933;-84
2022/07/24 04:06:33;;;;;;;6.70;5.70;;;;;;;26.29;49.39;99859.34;4407203;32;32550;-84
2022/07/24 04:09:04;;;;;;;7.82;6.07;;;;;;;26.16;50.00;99864.41;4445011;32;33456;-84
2022/07/24 04:11:32;;;;;;;7.12;5.78;;;;;;;26.29;49.49;99863.91;4445837;32;33217;-84
2022/07/24 04:14:00;;;;;;;6.87;5.60;;;;;;;26.28;49.61;99863.06;4473727;32;34560;-84
2022/07/24 04:16:28;;;;;;;7.95;5.87;;;;;;;26.64;48.59;99859.28;4444763;32;33336;-84
2022/07/24 04:18:56;;;;;;;8.75;5.82;;;;;;;26.63;49.10;99852.12;4475175;32;33485;-84
2022/07/24 04:21:25;;;;;;;7.55;6.43;;;;;;;26.98;47.93;99845.53;4461499;32;31624;-84
2022/07/24 04:23:53;;;;;;;8.75;5.87;;;;;;;26.82;48.52;99843.66;4444099;32;32292;-84
2022/07/24 04:26:22;;;;;;;6.97;6.20;;;;;;;26.73;48.76;99850.09;4461951;32;33000;-84
2022/07/24 04:28:50;;;;;;;7.07;6.05;;;;;;;26.64;49.48;99853.84;4446396;32;33860;-84
2022/07/24 04:31:18;;;;;;;6.70;5.70;;;;;;;26.77;48.69;99852.28;4448558;32;33438;-84
2022/07/24 04:33:45;;;;;;;6.55;5.95;;;;;;;26.90;48.70;99856.37;4456872;32;34001;-84
2022/07/24 04:36:14;;;;;;;9.98;6.32;;;;;;;26.77;48.83;99863.13;4473069;31;33654;-84
2022/07/24 04:38:42;;;;;;;8.75;6.60;;;;;;;26.52;49.72;99869.56;4459650;32;33826;-84
2022/07/24 04:41:10;;;;;;;7.90;6.32;;;;;;;26.85;49.04;99875.84;4458845;32;33042;-84
2022/07/24 04:43:38;;;;;;;10.18;6.20;;;;;;;26.96;48.60;99880.91;4444159;32;34048;-84
2022/07/24 04:46:06;;;;;;;7.72;6.18;;;;;;;26.91;48.83;99885.16;4457308;32;33109;-84
2022/07/24 04:48:34;;;;;;;11.48;7.60;;;;;;;26.81;49.25;99890.75;4459196;32;33971;-84
2022/07/24 04:51:01;;;;;;;8.48;6.15;;;;;;;27.00;48.83;99889.53;4458806;32;34061;-84
2022/07/24 04:53:30;;;;;;;10.55;6.37;;;;;;;26.90;49.02;99903.28;4431080;32;34100;-86
2022/07/24 04:55:59;;;;;;;9.43;6.20;;;;;;;26.92;49.26;99903.09;4460827;32;34716;-86
2022/07/24 04:58:27;;;;;;;7.00;6.15;;;;;;;26.89;49.24;99908.87;4460772;32;33482;-86
2022/07/24 05:00:55;;;;;;;6.97;6.28;;;;;;;26.79;49.36;99904.47;4458851;32;36212;-84
2022/07/24 05:03:24;;;;;;;8.45;6.55;;;;;;;27.04;48.68;99916.13;4464466;32;33227;-84
2022/07/24 05:05:54;;;;;;;10.52;6.68;;;;;;;26.92;49.38;99919.34;4473277;31;35595;-84
2022/07/24 05:08:22;;;;;;;7.68;6.90;;;;;;;27.10;49.18;99919.22;4443224;32;32166;-84
2022/07/24 05:10:56;;;;;;;7.65;6.68;;;;;;;27.07;48.94;99923.09;4444877;32;31351;-84
2022/07/24 05:13:24;;;;;;;8.20;7.28;;;;;;;27.05;49.33;99922.41;4458245;32;34891;-84
2022/07/24 05:15:55;;;;;;;8.68;6.68;;;;;;;27.13;49.21;99927.84;4460529;32;34030;-84
2022/07/24 05:18:22;;;;;;;8.68;6.82;;;;;;;27.01;49.77;99924.63;4461671;32;33122;-84
2022/07/24 05:20:51;;;;;;;11.15;7.20;;;;;;;26.92;49.98;99947.31;4454595;32;33296;-84
2022/07/24 05:23:21;;;;;;;9.48;7.87;;;;;;;27.09;49.59;99942.75;4458338;32;33608;-84
2022/07/24 05:25:50;;;;;;;7.70;6.90;;;;;;;27.05;49.90;99952.22;4460983;32;32956;-84
2022/07/24 05:28:19;;;;;;;12.23;7.43;;;;;;;27.19;49.59;99950.72;4460276;32;34501;-84
2022/07/24 05:30:50;;;;;;;9.88;7.07;;;;;;;27.31;49.23;99947.50;4464442;32;34024;-84
2022/07/24 05:33:21;;;;;;;7.43;6.72;;;;;;;27.19;49.64;99943.44;4461598;32;33645;-84
2022/07/24 05:35:51;;;;;;;10.70;7.22;;;;;;;27.30;49.84;99950.38;4460812;32;32797;-84
2022/07/24 05:38:19;;;;;;;9.30;7.05;;;;;;;27.04;50.15;99950.53;4446955;32;34338;-84
2022/07/24 05:40:48;;;;;;;10.65;7.93;;;;;;;27.50;49.03;99950.84;4443287;32;32242;-83
2022/07/24 05:43:16;;;;;;;10.57;7.32;;;;;;;27.57;48.58;99955.41;4458313;32;33520;-83
2022/07/24 05:45:46;;;;;;;9.02;7.50;;;;;;;27.26;49.50;99949.88;4436770;32;33008;-83
2022/07/24 05:48:14;;;;;;;9.73;8.20;;;;;;;27.46;49.17;99950.34;4460229;32;33984;-83
2022/07/24 05:50:44;;;;;;;9.02;7.60;;;;;;;27.28;50.25;99958.66;4461219;32;33828;-83
2022/07/24 05:53:17;;;;;;;11.50;7.28;;;;;;;27.18;50.30;99951.75;4458263;32;32993;-83
2022/07/24 05:55:46;;;;;;;8.38;7.50;;;;;;;27.54;49.76;99946.78;4466182;32;33649;-83
2022/07/24 05:58:16;;;;;;;9.30;7.28;;;;;;;27.33;49.66;99957.31;4460587;32;33896;-84
2022/07/24 06:00:46;;;;;;;9.23;7.80;;;;;;;27.90;48.43;99958.06;4476523;31;31435;-84
2022/07/24 06:03:20;;;;;;;11.30;8.07;;;;;;;28.08;48.63;99955.94;4457312;32;33529;-84
2022/07/24 06:05:48;;;;;;;11.12;8.60;;;;;;;28.33;47.57;99950.41;4448264;32;33320;-84
2022/07/24 06:08:17;;;;;;;10.43;8.13;;;;;;;28.12;48.52;99955.63;4450007;32;32403;-85
2022/07/24 06:10:46;;;;;;;12.05;8.05;;;;;;;28.36;47.19;99954.69;4474995;31;33897;-85
2022/07/24 06:13:15;;;;;;;10.35;9.05;;;;;;;28.74;46.67;99951.03;4462394;32;32712;-87
2022/07/24 06:15:44;;;;;;;9.32;8.38;;;;;;;28.66;46.61;99958.38;4459400;32;33561;-87
2022/07/24 06:18:16;;;;;;;9.55;7.40;;;;;;;28.58;47.12;99962.00;4459977;32;32675;-87
2022/07/24 06:20:45;;;;;;;9.88;8.48;;;;;;;28.97;46.25;99958.38;4463805;32;33156;-84
2022/07/24 06:23:18;;;;;;;10.13;8.85;;;;;;;29.02;45.45;99961.38;4457398;32;34589;-85
2022/07/24 06:25:50;;;;;;;10.05;8.10;;;;;;;29.13;46.13;99960.94;4459779;32;33879;-85
2022/07/24 06:28:20;;;;;;;11.88;7.85;;;;;;;29.15;45.29;99968.91;4458861;32;32929;-84
2022/07/24 06:30:52;;;;;;;10.20;8.10;;;;;;;29.24;45.02;99968.66;4460807;32;32643;-85
2022/07/24 06:33:26;;;;;;;9.45;8.43;;;;;;;29.30;44.79;99969.81;4447723;32;32147;-84
2022/07/24 06:35:57;;;;;;;15.00;7.87;;;;;;;29.07;44.76;99976.13;4475218;31;32978;-84
2022/07/24 06:38:32;;;;;;;11.95;8.48;;;;;;;29.44;44.55;99970.87;4458439;32;33391;-85
2022/07/24 06:41:01;;;;;;;9.40;8.25;;;;;;;29.53;44.91;99977.91;4461014;32;33047;-84
2022/07/24 06:43:29;;;;;;;13.07;9.57;;;;;;;29.57;44.45;99976.53;4460815;32;34509;-84
2022/07/24 06:46:00;;;;;;;12.40;9.38;;;;;;;29.67;43.78;99985.28;4460601;32;34269;-84
2022/07/24 06:48:29;;;;;;;11.38;8.65;;;;;;;29.70;43.72;99974.03;4458746;32;33268;-85
2022/07/24 06:50:58;;;;;;;9.82;8.52;;;;;;;29.63;43.99;99983.97;4472915;31;33003;-84
2022/07/24 06:53:29;;;;;;;12.18;9.05;;;;;;;29.81;43.66;99975.44;4473410;31;32233;-84
2022/07/24 06:55:58;;;;;;;9.82;8.90;;;;;;;30.05;43.51;99987.91;4447684;32;33305;-85
2022/07/24 06:58:26;;;;;;;10.48;8.45;;;;;;;30.01;43.74;99992.06;4439884;32;32617;-84
2022/07/24 07:03:35;;;;;;;12.07;9.32;;;;;;;30.26;42.92;99984.47;4458809;32;34981;-84
2022/07/24 07:06:03;;;;;;;11.10;8.43;;;;;;;30.02;43.03;99996.47;4462138;32;33223;-84
2022/07/24 07:08:33;;;;;;;12.77;10.13;;;;;;;30.07;43.61;99992.16;4446675;32;31867;-84
2022/07/24 07:11:08;;;;;;;11.27;8.52;;;;;;;30.40;42.36;99996.38;4464621;31;33803;-84
2022/07/24 07:13:36;;;;;;;11.12;9.48;;;;;;;30.11;42.79;99987.19;4449031;32;33645;-84
2022/07/24 07:16:05;;;;;;;10.90;9.73;;;;;;;30.22;41.90;99994.06;4457877;32;34461;-84
2022/07/24 07:18:40;;;;;;;9.73;8.73;;;;;;;30.19;42.11;99989.81;4458881;32;34787;-84
2022/07/24 07:21:08;;;;;;;10.50;9.50;;;;;;;30.54;41.81;99992.78;4459488;32;33505;-83
2022/07/24 07:23:38;;;;;;;12.60;9.13;;;;;;;30.53;42.14;99988.38;4447488;32;33863;-84
2022/07/24 07:28:56;;;;;;;10.93;9.35;;;;;;;30.81;40.84;99992.06;4473582;31;33509;-84
2022/07/24 07:31:26;;;;;;;10.90;9.23;;;;;;;30.83;40.14;99995.44;4456771;32;33207;-84
2022/07/24 07:36:48;;;;;;;14.32;8.90;;;;;;;31.01;39.56;99989.53;4461131;32;34383;-84
2022/07/24 07:39:17;;;;;;;11.60;9.70;;;;;;;31.36;38.48;99987.78;4458275;32;33471;-83
2022/07/24 07:41:51;;;;;;;10.30;9.30;;;;;;;31.34;40.07;99983.56;4447068;32;32965;-83
2022/07/24 07:44:24;;;;;;;11.23;8.52;;;;;;;31.51;38.16;99984.09;4460296;32;34238;-83
2022/07/24 07:46:55;;;;;;;9.55;8.55;;;;;;;31.58;37.57;99988.59;4459727;32;33401;-83
2022/07/24 07:49:24;;;;;;;9.73;8.18;;;;;;;31.67;36.93;99989.28;4475278;31;33197;-83
2022/07/24 07:51:58;;;;;;;11.68;7.95;;;;;;;31.68;36.52;99980.03;4461286;32;32885;-83
2022/07/24 07:54:29;;;;;;;9.68;8.77;;;;;;;31.44;37.32;99988.69;4447735;32;33945;-83
2022/07/24 07:56:57;;;;;;;10.20;8.48;;;;;;;31.56;37.53;99987.94;4473300;31;33837;-83
2022/07/24 07:59:26;;;;;;;9.30;8.50;;;;;;;31.96;36.32;99984.66;4459555;32;33103;-83
2022/07/24 08:01:54;;;;;;;9.98;8.57;;;;;;;32.10;36.53;99997.34;4462864;32;33316;-83
2022/07/24 08:04:25;;;;;;;9.90;8.90;;;;;;;31.86;36.13;99993.22;4457918;32;33843;-83
2022/07/24 08:06:53;;;;;;;9.57;8.57;;;;;;;31.80;36.26;99986.63;4462199;32;34001;-84
2022/07/24 08:09:26;;;;;;;9.65;8.48;;;;;;;31.85;36.28;99992.34;4466504;32;34230;-83
2022/07/24 08:11:59;;;;;;;10.95;8.15;;;;;;;32.19;35.04;99996.13;4427937;32;33502;-84
2022/07/24 08:14:34;;;;;;;11.23;7.75;;;;;;;32.01;35.29;99990.38;4450783;32;35879;-84
2022/07/24 08:17:03;;;;;;;9.70;8.13;;;;;;;32.19;34.08;99989.81;4433798;32;34741;-83
2022/07/24 08:19:32;;;;;;;11.23;8.18;;;;;;;31.73;35.43;99993.94;4449720;32;33233;-84
2022/07/24 08:22:05;;;;;;;8.80;8.00;;;;;;;31.55;35.55;99997.16;4456236;32;33819;-83
2022/07/24 08:24:35;;;;;;;9.25;8.35;;;;;;;31.16;36.42;99997.66;4446842;32;33562;-83
2022/07/24 08:27:04;;;;;;;10.77;9.20;;;;;;;31.31;36.34;100001.16;4445523;32;33950;-86
2022/07/24 08:29:32;;;;;;;11.32;9.50;;;;;;;31.23;36.89;99998.53;4432980;32;33643;-83
2022/07/24 08:32:04;;;;;;;12.13;8.43;;;;;;;31.17;36.54;100001.22;4460527;32;33205;-84
2022/07/24 08:34:38;;;;;;;11.25;9.82;;;;;;;31.24;36.98;100002.97;4442696;32;32407;-84
2022/07/24 08:37:07;;;;;;;11.30;9.13;;;;;;;30.93;37.48;99999.72;4441621;32;32339;-84
2022/07/24 08:39:35;;;;;;;9.73;8.82;;;;;;;31.10;37.09;100003.91;4451004;32;33240;-84
2022/07/24 08:42:08;;;;;;;10.45;9.13;;;;;;;30.91;38.42;100004.50;4464483;32;33287;-84
2022/07/24 08:44:38;;;;;;;8.95;8.05;;;;;;;31.05;36.12;100004.47;4446971;32;33950;-85
2022/07/24 08:47:10;;;;;;;9.23;8.25;;;;;;;30.61;37.52;100008.16;4443142;32;34624;-86
2022/07/24 08:49:40;;;;;;;8.15;7.35;;;;;;;30.94;36.54;100004.97;4448878;32;32245;-86
2022/07/24 08:52:10;;;;;;;10.60;9.18;;;;;;;31.32;36.23;100008.31;4434640;32;32817;-85
2022/07/24 08:57:14;;;;;;;10.10;8.23;;;;;;;31.21;35.85;100000.63;4448299;32;33306;-86
2022/07/24 08:59:45;;;;;;;8.60;7.75;;;;;;;31.10;36.69;100012.06;4463442;32;33347;-86
2022/07/24 09:02:21;;;;;;;9.68;8.15;;;;;;;31.58;34.60;100012.31;4452359;32;35357;-86
2022/07/24 09:04:58;;;;;;;10.63;7.62;;;;;;;31.76;33.33;100001.75;4463936;32;34288;-86
2022/07/24 09:07:30;;;;;;;11.45;8.02;;;;;;;31.64;34.37;100016.97;4438107;32;33609;-85
2022/07/24 09:10:06;;;;;;;8.82;8.02;;;;;;;31.51;34.97;100017.69;4455191;32;34233;-85
2022/07/24 09:12:40;;;;;;;9.32;7.47;;;;;;;31.59;33.94;100016.72;4476804;31;32193;-85
2022/07/24 09:15:13;;;;;;;7.87;7.18;;;;;;;31.74;34.58;100013.87;4449156;32;33031;-85
2022/07/24 09:17:56;;;;;;;8.77;7.90;;;;;;;32.01;34.33;100007.59;4463951;32;33687;-86
2022/07/24 09:20:38;;;;;;;9.80;7.90;;;;;;;32.39;34.28;100020.00;4464113;32;33182;-86
2022/07/24 09:23:07;;;;;;;12.68;7.85;;;;;;;32.20;33.19;100018.84;4461422;32;30744;-86
2022/07/24 09:25:35;;;;;;;7.93;7.22;;;;;;;32.30;32.78;100022.88;4447659;32;33103;-85
2022/07/24 09:28:14;;;;;;;7.72;7.03;;;;;;;32.29;32.64;100025.81;4461340;32;33224;-86
2022/07/24 09:30:52;;;;;;;8.00;7.30;;;;;;;32.58;31.75;100021.97;4474342;31;33091;-84
2022/07/24 09:33:26;;;;;;;7.90;7.10;;;;;;;32.91;31.40;100029.47;4461095;32;32753;-86
2022/07/24 09:36:14;;;;;;;8.13;6.85;;;;;;;33.37;31.04;100016.66;4446606;32;36303;-85
2022/07/24 09:38:50;;;;;;;7.75;7.03;;;;;;;32.98;30.11;100016.63;4472121;31;33247;-86
2022/07/24 09:41:25;;;;;;;7.72;7.03;;;;;;;33.10;30.64;100020.47;4448116;32;31813;-85
2022/07/24 09:43:58;;;;;;;7.62;6.93;;;;;;;32.92;30.08;100029.25;4457303;32;34190;-85
2022/07/24 09:46:34;;;;;;;9.88;7.40;;;;;;;33.20;30.84;100036.47;4445109;32;33080;-85
2022/07/24 09:52:04;;;;;;;8.23;7.43;;;;;;;33.26;30.71;100025.50;4467019;31;33922;-85
2022/07/24 09:54:48;;;;;;;7.40;6.75;;;;;;;33.19;30.44;100027.41;4450462;32;32846;-85
2022/07/24 09:57:28;;;;;;;8.68;6.65;;;;;;;32.76;28.40;100022.25;4452888;32;32855;-85
2022/07/24 10:00:07;;;;;;;8.13;6.65;;;;;;;32.20;30.22;100021.56;4477832;31;33305;-85
2022/07/24 10:02:44;;;;;;;6.78;6.07;;;;;;;32.70;30.27;100031.25;4460196;32;31654;-85
2022/07/24 10:05:14;;;;;;;6.95;6.05;;;;;;;32.69;28.76;100034.19;4444327;32;33469;-85
2022/07/24 10:07:56;;;;;;;;;;;;;;;32.70;28.96;100039.47;4471600;31;32260;-85
2022/07/24 10:10:36;;;;;;;7.95;6.57;;;;;;;32.60;29.82;100033.53;4464974;32;34972;-85
2022/07/24 10:13:05;;;;;;;10.23;7.05;;;;;;;32.32;29.85;100034.44;4447121;32;33539;-85
2022/07/24 10:15:54;;;;;;;7.55;6.65;;;;;;;32.27;30.23;100017.81;4460679;32;33931;-85
2022/07/24 10:18:30;;;;;;;7.32;6.40;;;;;;;32.41;31.25;100028.84;4466933;32;34539;-86
2022/07/24 10:21:09;;;;;;;7.12;6.50;;;;;;;32.34;31.11;100024.16;4472564;31;34547;-85
2022/07/24 10:24:09;;;;;;;6.12;5.55;;;;;;;32.49;30.19;100024.03;4465412;32;33346;-85
2022/07/24 10:26:45;;;;;;;6.70;6.00;;;;;;;32.80;29.46;100018.03;4460051;32;34876;-85
2022/07/24 10:32:00;;;;;;;6.93;6.03;;;;;;;32.64;28.56;100023.87;4462596;32;34442;-85
2022/07/24 10:34:32;;;;;;;9.00;7.07;;;;;;;32.89;28.90;100016.78;4448385;32;32448;-85
2022/07/24 10:37:20;;;;;;;7.03;6.32;;;;;;;33.16;27.97;100026.97;4457523;32;32295;-85
2022/07/24 10:39:49;;;;;;;7.57;6.20;;;;;;;33.01;27.38;100028.00;4476614;31;33990;-84
2022/07/24 10:42:23;;;;;;;11.85;6.53;;;;;;;33.07;28.21;100023.59;4468754;32;34182;-85
2022/07/24 10:45:15;;;;;;;7.15;6.45;;;;;;;32.76;28.62;100022.25;4449147;32;33241;-85
2022/07/24 10:47:44;;;;;;;6.68;6.07;;;;;;;32.80;28.25;100028.13;4449033;32;33130;-85
2022/07/24 10:50:14;;;;;;;6.18;5.25;;;;;;;32.67;28.52;100025.38;4462363;32;33295;-85
2022/07/24 10:52:48;;;;;;;5.80;5.28;;;;;;;32.72;28.75;100011.94;4458076;32;34903;-85
2022/07/24 10:55:26;;;;;;;6.15;5.62;;;;;;;32.76;28.03;100021.38;4462160;32;34231;-85
2022/07/24 10:58:09;;;;;;;8.90;5.90;;;;;;;32.87;28.24;100018.91;4441865;32;32367;-86
2022/07/24 11:00:44;;;;;;;5.97;5.47;;;;;;;32.84;28.01;100024.78;4446444;32;32874;-85
2022/07/24 11:06:11;;;;;;;7.07;5.32;;;;;;;33.33;26.84;100004.47;4462724;32;33160;-85
2022/07/24 11:08:49;;;;;;;7.10;5.65;;;;;;;33.52;27.02;100000.09;4463333;32;33564;-85
2022/07/24 11:11:25;;;;;;;5.82;5.03;;;;;;;33.33;27.41;100004.47;4451251;32;34021;-85
2022/07/24 11:14:01;;;;;;;5.32;4.82;;;;;;;33.31;26.21;100003.84;4447835;32;34475;-85
2022/07/24 11:16:45;;;;;;;5.32;4.93;;;;;;;33.27;25.76;100002.56;4464138;31;33953;-84
2022/07/24 11:19:19;;;;;;;4.82;4.43;;;;;;;33.38;25.40;99993.75;4438782;32;32230;-84
2022/07/24 11:21:48;;;;;;;5.90;5.15;;;;;;;33.37;26.80;100002.97;4457998;32;33405;-85
2022/07/24 11:24:30;;;;;;;5.55;4.93;;;;;;;33.38;26.21;99993.75;4477035;31;34016;-84
2022/07/24 11:27:05;;;;;;;5.35;4.95;;;;;;;33.65;25.35;99999.22;4447956;32;34573;-85
2022/07/24 11:29:40;;;;;;;5.97;5.37;;;;;;;34.31;24.43;99985.37;4458363;32;33801;-85
2022/07/24 11:32:17;;;;;;;4.65;4.22;;;;;;;34.38;25.40;99980.72;4473390;31;33572;-85
2022/07/24 11:34:51;;;;;;;4.47;3.97;;;;;;;34.59;23.13;99978.75;4464779;32;34213;-85
2022/07/24 11:37:33;;;;;;;4.70;3.83;;;;;;;34.80;22.51;99977.53;4446952;32;35207;-85
2022/07/24 11:40:06;;;;;;;5.43;4.93;;;;;;;34.82;23.05;99981.75;4448028;32;33693;-85
2022/07/24 11:42:37;;;;;;;7.25;4.25;;;;;;;34.66;24.71;99979.56;4449885;32;33595;-85
2022/07/24 11:45:09;;;;;;;5.00;4.12;;;;;;;34.43;24.16;99973.75;4463275;31;32033;-86
2022/07/24 11:47:56;;;;;;;3.60;3.30;;;;;;;34.45;22.86;99966.12;4462379;32;34400;-85
2022/07/24 11:50:27;;;;;;;4.18;3.70;;;;;;;34.34;22.84;99982.19;4464057;32;34243;-85
2022/07/24 11:52:57;;;;;;;4.20;3.90;;;;;;;34.87;22.91;99968.22;4459903;32;33093;-86
2022/07/24 11:55:29;;;;;;;;;;;;;;;35.12;21.55;99961.94;4476575;31;34979;-85
2022/07/24 11:57:58;;;;;;;4.25;3.55;;;;;;;34.93;21.50;99971.13;4452609;32;33214;-86
2022/07/24 12:00:46;;;;;;;5.43;3.78;;;;;;;34.59;22.41;99970.50;4461542;32;34321;-86
2022/07/24 12:03:16;;;;;;;5.57;4.00;;;;;;;35.13;22.00;99966.38;4463469;32;34718;-85
2022/07/24 12:05:44;;;;;;;5.43;3.85;;;;;;;35.02;23.44;99967.94;4459790;32;33520;-84